sensor_id;sensor_type;location;lat;lon;timestamp;P1;durP1;ratioP1;P2;durP2;ratioP2
6255;SDS011;3161;48.794;9.784;2022-07-31T00:00:57;3.17;;;2.87;;
6255;SDS011;3161;48.794;9.784;2022-07-31T00:03:25;3.47;;;3.17;;
6255;SDS011;3161;48.794;9.784;2022-07-31T00:05:52;6.20;;;2.97;;
6255;SDS011;3161;48.794;9.784;2022-07-31T00:08:20;3.70;;;3.07;;
6255;SDS011;3161;48.794;9.784;2022-07-31T00:10:47;10.73;;;3.03;;
6255;SDS011;3161;48.794;9.784;2022-07-31T00:13:15;3.90;;;3.20;;
6255;SDS011;3161;48.794;9.784;2022-07-31T00:15:42;3.83;;;2.90;;
6255;SDS011;3161;48.794;9.784;2022-07-31T00:18:10;6.77;;;3.30;;
6255;SDS011;3161;48.794;9.784;2022-07-31T00:20:38;2.70;;;2.50;;
6255;SDS011;3161;48.794;9.784;2022-07-31T00:23:05;6.17;;;3.17;;
6255;SDS011;3161;48.794;9.784;2022-07-31T00:25:33;5.50;;;2.97;;
6255;SDS011;3161;48.794;9.784;2022-07-31T00:28:00;4.80;;;2.77;;
6255;SDS011;3161;48.794;9.784;2022-07-31T00:30:28;8.23;;;3.07;;
6255;SDS011;3161;48.794;9.784;2022-07-31T00:32:56;3.43;;;2.73;;
6255;SDS011;3161;48.794;9.784;2022-07-31T00:35:23;3.90;;;3.17;;
6255;SDS011;3161;48.794;9.784;2022-07-31T00:37:51;4.40;;;3.23;;
6255;SDS011;3161;48.794;9.784;2022-07-31T00:40:19;8.83;;;3.73;;
6255;SDS011;3161;48.794;9.784;2022-07-31T00:42:46;5.80;;;3.10;;
6255;SDS011;3161;48.794;9.784;2022-07-31T00:45:14;5.80;;;3.50;;
6255;SDS011;3161;48.794;9.784;2022-07-31T00:47:41;3.70;;;3.20;;
6255;SDS011;3161;48.794;9.784;2022-07-31T00:50:10;5.20;;;3.30;;
6255;SDS011;3161;48.794;9.784;2022-07-31T00:52:38;4.23;;;3.30;;
6255;SDS011;3161;48.794;9.784;2022-07-31T00:55:06;5.50;;;3.20;;
6255;SDS011;3161;48.794;9.784;2022-07-31T00:57:34;5.03;;;3.37;;
6255;SDS011;3161;48.794;9.784;2022-07-31T01:00:03;3.17;;;2.87;;
6255;SDS011;3161;48.794;9.784;2022-07-31T01:02:31;6.40;;;3.27;;
6255;SDS011;3161;48.794;9.784;2022-07-31T01:04:58;8.53;;;3.10;;
6255;SDS011;3161;48.794;9.784;2022-07-31T01:07:26;3.53;;;2.90;;
6255;SDS011;3161;48.794;9.784;2022-07-31T01:09:54;3.93;;;2.60;;
6255;SDS011;3161;48.794;9.784;2022-07-31T01:12:30;6.30;;;3.17;;
6255;SDS011;3161;48.794;9.784;2022-07-31T01:15:16;6.23;;;3.00;;
6255;SDS011;3161;48.794;9.784;2022-07-31T01:17:45;3.47;;;2.87;;
6255;SDS011;3161;48.794;9.784;2022-07-31T01:20:14;2.93;;;2.73;;
6255;SDS011;3161;48.794;9.784;2022-07-31T01:22:45;4.77;;;2.90;;
6255;SDS011;3161;48.794;9.784;2022-07-31T01:31:08;4.20;;;2.83;;
6255;SDS011;3161;48.794;9.784;2022-07-31T01:33:41;3.23;;;2.70;;
6255;SDS011;3161;48.794;9.784;2022-07-31T01:36:19;4.73;;;3.10;;
6255;SDS011;3161;48.794;9.784;2022-07-31T01:38:46;4.47;;;3.37;;
6255;SDS011;3161;48.794;9.784;2022-07-31T01:41:15;5.30;;;3.20;;
6255;SDS011;3161;48.794;9.784;2022-07-31T01:43:47;3.53;;;3.10;;
6255;SDS011;3161;48.794;9.784;2022-07-31T01:46:16;6.97;;;3.10;;
6255;SDS011;3161;48.794;9.784;2022-07-31T01:48:46;6.00;;;3.27;;
6255;SDS011;3161;48.794;9.784;2022-07-31T01:51:15;4.97;;;2.80;;
6255;SDS011;3161;48.794;9.784;2022-07-31T01:53:44;3.63;;;3.33;;
6255;SDS011;3161;48.794;9.784;2022-07-31T01:56:15;4.93;;;3.00;;
6255;SDS011;3161;48.794;9.784;2022-07-31T01:58:44;3.13;;;2.83;;
6255;SDS011;3161;48.794;9.784;2022-07-31T02:01:13;4.97;;;2.80;;
6255;SDS011;3161;48.794;9.784;2022-07-31T02:03:42;3.70;;;3.20;;
6255;SDS011;3161;48.794;9.784;2022-07-31T02:06:12;3.90;;;3.17;;
6255;SDS011;3161;48.794;9.784;2022-07-31T02:08:42;3.60;;;3.30;;
6255;SDS011;3161;48.794;9.784;2022-07-31T02:11:14;3.20;;;2.90;;
6255;SDS011;3161;48.794;9.784;2022-07-31T02:13:45;4.40;;;3.13;;
6255;SDS011;3161;48.794;9.784;2022-07-31T02:16:15;3.50;;;3.20;;
6255;SDS011;3161;48.794;9.784;2022-07-31T02:18:45;4.73;;;3.67;;
6255;SDS011;3161;48.794;9.784;2022-07-31T02:21:14;3.90;;;3.50;;
6255;SDS011;3161;48.794;9.784;2022-07-31T02:23:42;6.87;;;3.63;;
6255;SDS011;3161;48.794;9.784;2022-07-31T02:26:10;7.00;;;3.10;;
6255;SDS011;3161;48.794;9.784;2022-07-31T02:28:39;6.47;;;3.10;;
6255;SDS011;3161;48.794;9.784;2022-07-31T02:31:10;6.37;;;3.40;;
6255;SDS011;3161;48.794;9.784;2022-07-31T02:33:40;4.50;;;3.53;;
6255;SDS011;3161;48.794;9.784;2022-07-31T02:36:10;6.73;;;3.10;;
6255;SDS011;3161;48.794;9.784;2022-07-31T02:38:40;3.50;;;3.20;;
6255;SDS011;3161;48.794;9.784;2022-07-31T02:41:08;3.73;;;3.13;;
6255;SDS011;3161;48.794;9.784;2022-07-31T02:43:38;3.40;;;3.10;;
6255;SDS011;3161;48.794;9.784;2022-07-31T02:46:06;3.40;;;3.10;;
6255;SDS011;3161;48.794;9.784;2022-07-31T02:48:36;3.53;;;3.23;;
6255;SDS011;3161;48.794;9.784;2022-07-31T02:51:05;3.50;;;3.20;;
6255;SDS011;3161;48.794;9.784;2022-07-31T02:53:33;8.00;;;3.17;;
6255;SDS011;3161;48.794;9.784;2022-07-31T02:56:03;3.33;;;3.13;;
6255;SDS011;3161;48.794;9.784;2022-07-31T02:58:33;4.33;;;3.43;;
6255;SDS011;3161;48.794;9.784;2022-07-31T03:01:04;3.77;;;3.47;;
6255;SDS011;3161;48.794;9.784;2022-07-31T03:03:32;5.13;;;3.27;;
6255;SDS011;3161;48.794;9.784;2022-07-31T03:06:00;5.03;;;3.23;;
6255;SDS011;3161;48.794;9.784;2022-07-31T03:08:27;5.73;;;3.20;;
6255;SDS011;3161;48.794;9.784;2022-07-31T03:10:55;4.40;;;3.40;;
6255;SDS011;3161;48.794;9.784;2022-07-31T03:13:23;6.07;;;3.93;;
6255;SDS011;3161;48.794;9.784;2022-07-31T03:15:52;3.13;;;2.93;;
6255;SDS011;3161;48.794;9.784;2022-07-31T03:18:21;5.67;;;3.50;;
6255;SDS011;3161;48.794;9.784;2022-07-31T03:20:49;3.50;;;3.20;;
6255;SDS011;3161;48.794;9.784;2022-07-31T03:23:19;3.77;;;3.47;;
6255;SDS011;3161;48.794;9.784;2022-07-31T03:25:47;3.53;;;3.17;;
6255;SDS011;3161;48.794;9.784;2022-07-31T03:28:16;4.20;;;3.47;;
6255;SDS011;3161;48.794;9.784;2022-07-31T03:30:45;5.17;;;3.40;;
6255;SDS011;3161;48.794;9.784;2022-07-31T03:33:14;3.97;;;3.67;;
6255;SDS011;3161;48.794;9.784;2022-07-31T03:35:41;4.13;;;3.30;;
6255;SDS011;3161;48.794;9.784;2022-07-31T03:38:09;3.73;;;3.43;;
6255;SDS011;3161;48.794;9.784;2022-07-31T03:40:36;3.93;;;3.40;;
6255;SDS011;3161;48.794;9.784;2022-07-31T03:43:04;7.40;;;3.47;;
6255;SDS011;3161;48.794;9.784;2022-07-31T03:45:33;4.43;;;3.43;;
6255;SDS011;3161;48.794;9.784;2022-07-31T03:48:02;4.03;;;3.60;;
6255;SDS011;3161;48.794;9.784;2022-07-31T03:50:31;6.37;;;3.37;;
6255;SDS011;3161;48.794;9.784;2022-07-31T03:52:58;6.40;;;3.60;;
6255;SDS011;3161;48.794;9.784;2022-07-31T03:55:26;5.83;;;3.20;;
6255;SDS011;3161;48.794;9.784;2022-07-31T03:57:55;5.70;;;3.20;;
6255;SDS011;3161;48.794;9.784;2022-07-31T04:00:24;10.20;;;3.83;;
6255;SDS011;3161;48.794;9.784;2022-07-31T04:02:53;4.67;;;3.47;;
6255;SDS011;3161;48.794;9.784;2022-07-31T04:05:22;9.73;;;3.53;;
6255;SDS011;3161;48.794;9.784;2022-07-31T04:07:50;8.37;;;3.30;;
6255;SDS011;3161;48.794;9.784;2022-07-31T04:10:17;11.20;;;3.97;;
6255;SDS011;3161;48.794;9.784;2022-07-31T04:12:45;5.30;;;4.03;;
6255;SDS011;3161;48.794;9.784;2022-07-31T04:15:12;5.77;;;3.83;;
6255;SDS011;3161;48.794;9.784;2022-07-31T04:17:40;5.17;;;3.73;;
6255;SDS011;3161;48.794;9.784;2022-07-31T04:20:07;3.50;;;3.20;;
6255;SDS011;3161;48.794;9.784;2022-07-31T04:22:36;4.70;;;3.53;;
6255;SDS011;3161;48.794;9.784;2022-07-31T04:25:04;8.40;;;3.30;;
6255;SDS011;3161;48.794;9.784;2022-07-31T04:27:38;4.10;;;3.80;;
6255;SDS011;3161;48.794;9.784;2022-07-31T04:30:02;3.67;;;3.40;;
6255;SDS011;3161;48.794;9.784;2022-07-31T04:32:30;6.07;;;3.50;;
6255;SDS011;3161;48.794;9.784;2022-07-31T04:34:58;7.20;;;3.60;;
6255;SDS011;3161;48.794;9.784;2022-07-31T04:37:25;6.37;;;3.90;;
6255;SDS011;3161;48.794;9.784;2022-07-31T04:39:53;5.17;;;3.50;;
6255;SDS011;3161;48.794;9.784;2022-07-31T04:42:20;4.07;;;3.30;;
6255;SDS011;3161;48.794;9.784;2022-07-31T04:44:48;3.80;;;3.50;;
6255;SDS011;3161;48.794;9.784;2022-07-31T04:47:16;10.17;;;3.77;;
6255;SDS011;3161;48.794;9.784;2022-07-31T04:49:44;4.07;;;3.47;;
6255;SDS011;3161;48.794;9.784;2022-07-31T04:52:11;4.43;;;3.80;;
6255;SDS011;3161;48.794;9.784;2022-07-31T04:54:39;4.97;;;3.53;;
6255;SDS011;3161;48.794;9.784;2022-07-31T04:57:06;8.03;;;4.23;;
6255;SDS011;3161;48.794;9.784;2022-07-31T04:59:34;4.53;;;3.70;;
6255;SDS011;3161;48.794;9.784;2022-07-31T05:02:01;5.97;;;3.60;;
6255;SDS011;3161;48.794;9.784;2022-07-31T05:04:29;5.27;;;3.97;;
6255;SDS011;3161;48.794;9.784;2022-07-31T05:06:56;4.63;;;3.67;;
6255;SDS011;3161;48.794;9.784;2022-07-31T05:09:24;4.30;;;3.90;;
6255;SDS011;3161;48.794;9.784;2022-07-31T05:11:53;5.13;;;3.93;;
6255;SDS011;3161;48.794;9.784;2022-07-31T05:14:21;4.63;;;3.67;;
6255;SDS011;3161;48.794;9.784;2022-07-31T05:16:48;5.50;;;3.70;;
6255;SDS011;3161;48.794;9.784;2022-07-31T05:19:16;7.80;;;4.20;;
6255;SDS011;3161;48.794;9.784;2022-07-31T05:21:44;5.53;;;3.83;;
6255;SDS011;3161;48.794;9.784;2022-07-31T05:24:12;4.50;;;4.10;;
6255;SDS011;3161;48.794;9.784;2022-07-31T05:26:40;4.17;;;3.87;;
6255;SDS011;3161;48.794;9.784;2022-07-31T05:29:07;7.17;;;3.77;;
6255;SDS011;3161;48.794;9.784;2022-07-31T05:31:35;8.40;;;4.37;;
6255;SDS011;3161;48.794;9.784;2022-07-31T05:34:02;6.33;;;4.60;;
6255;SDS011;3161;48.794;9.784;2022-07-31T05:36:30;4.30;;;3.90;;
6255;SDS011;3161;48.794;9.784;2022-07-31T05:38:58;6.83;;;4.10;;
6255;SDS011;3161;48.794;9.784;2022-07-31T05:41:25;3.90;;;3.60;;
6255;SDS011;3161;48.794;9.784;2022-07-31T05:43:54;4.27;;;3.83;;
6255;SDS011;3161;48.794;9.784;2022-07-31T05:46:22;8.20;;;4.00;;
6255;SDS011;3161;48.794;9.784;2022-07-31T05:48:49;4.97;;;4.00;;
6255;SDS011;3161;48.794;9.784;2022-07-31T05:51:17;8.40;;;4.57;;
6255;SDS011;3161;48.794;9.784;2022-07-31T05:53:44;8.10;;;4.30;;
6255;SDS011;3161;48.794;9.784;2022-07-31T05:56:12;5.77;;;4.70;;
6255;SDS011;3161;48.794;9.784;2022-07-31T05:58:39;8.07;;;4.30;;
6255;SDS011;3161;48.794;9.784;2022-07-31T06:01:08;5.77;;;3.90;;
6255;SDS011;3161;48.794;9.784;2022-07-31T06:03:36;6.97;;;4.00;;
6255;SDS011;3161;48.794;9.784;2022-07-31T06:08:52;4.63;;;3.73;;
6255;SDS011;3161;48.794;9.784;2022-07-31T06:11:19;6.73;;;4.50;;
6255;SDS011;3161;48.794;9.784;2022-07-31T06:13:47;4.33;;;3.97;;
6255;SDS011;3161;48.794;9.784;2022-07-31T06:16:14;5.03;;;3.03;;
6255;SDS011;3161;48.794;9.784;2022-07-31T06:18:42;4.83;;;3.10;;
6255;SDS011;3161;48.794;9.784;2022-07-31T06:21:10;4.07;;;3.33;;
6255;SDS011;3161;48.794;9.784;2022-07-31T06:23:37;5.97;;;3.37;;
6255;SDS011;3161;48.794;9.784;2022-07-31T06:26:05;7.63;;;3.10;;
6255;SDS011;3161;48.794;9.784;2022-07-31T06:28:33;3.80;;;3.50;;
6255;SDS011;3161;48.794;9.784;2022-07-31T06:31:00;6.70;;;3.37;;
6255;SDS011;3161;48.794;9.784;2022-07-31T06:33:27;5.23;;;2.90;;
6255;SDS011;3161;48.794;9.784;2022-07-31T06:35:55;4.20;;;2.60;;
6255;SDS011;3161;48.794;9.784;2022-07-31T06:38:23;3.80;;;3.50;;
6255;SDS011;3161;48.794;9.784;2022-07-31T06:40:50;3.03;;;2.83;;
6255;SDS011;3161;48.794;9.784;2022-07-31T06:43:18;3.33;;;3.03;;
6255;SDS011;3161;48.794;9.784;2022-07-31T06:45:46;4.00;;;3.13;;
6255;SDS011;3161;48.794;9.784;2022-07-31T06:48:13;3.67;;;3.10;;
6255;SDS011;3161;48.794;9.784;2022-07-31T06:50:42;3.00;;;2.63;;
6255;SDS011;3161;48.794;9.784;2022-07-31T06:53:10;5.93;;;3.83;;
6255;SDS011;3161;48.794;9.784;2022-07-31T06:55:37;3.20;;;2.83;;
6255;SDS011;3161;48.794;9.784;2022-07-31T06:58:05;3.13;;;2.50;;
6255;SDS011;3161;48.794;9.784;2022-07-31T07:00:32;4.57;;;2.60;;
6255;SDS011;3161;48.794;9.784;2022-07-31T07:03:00;5.70;;;3.47;;
6255;SDS011;3161;48.794;9.784;2022-07-31T07:05:27;3.03;;;2.63;;
6255;SDS011;3161;48.794;9.784;2022-07-31T07:07:55;2.73;;;2.13;;
6255;SDS011;3161;48.794;9.784;2022-07-31T07:10:22;4.23;;;2.50;;
6255;SDS011;3161;48.794;9.784;2022-07-31T07:12:50;4.40;;;2.73;;
6255;SDS011;3161;48.794;9.784;2022-07-31T07:15:17;4.30;;;2.30;;
6255;SDS011;3161;48.794;9.784;2022-07-31T07:17:45;2.43;;;1.97;;
6255;SDS011;3161;48.794;9.784;2022-07-31T07:20:13;3.63;;;2.03;;
6255;SDS011;3161;48.794;9.784;2022-07-31T07:22:41;2.40;;;1.90;;
6255;SDS011;3161;48.794;9.784;2022-07-31T07:25:08;3.17;;;2.27;;
6255;SDS011;3161;48.794;9.784;2022-07-31T07:27:37;6.00;;;2.00;;
6255;SDS011;3161;48.794;9.784;2022-07-31T07:30:05;5.27;;;1.90;;
6255;SDS011;3161;48.794;9.784;2022-07-31T07:32:33;4.03;;;1.90;;
6255;SDS011;3161;48.794;9.784;2022-07-31T07:35:00;2.47;;;1.63;;
6255;SDS011;3161;48.794;9.784;2022-07-31T07:37:28;3.47;;;1.53;;
6255;SDS011;3161;48.794;9.784;2022-07-31T07:39:57;2.23;;;1.40;;
6255;SDS011;3161;48.794;9.784;2022-07-31T07:42:25;1.47;;;1.33;;
6255;SDS011;3161;48.794;9.784;2022-07-31T07:44:52;1.53;;;1.23;;
6255;SDS011;3161;48.794;9.784;2022-07-31T07:47:20;3.87;;;1.27;;
6255;SDS011;3161;48.794;9.784;2022-07-31T07:49:47;1.67;;;1.33;;
6255;SDS011;3161;48.794;9.784;2022-07-31T07:52:15;2.83;;;1.17;;
6255;SDS011;3161;48.794;9.784;2022-07-31T07:54:43;1.23;;;1.20;;
6255;SDS011;3161;48.794;9.784;2022-07-31T07:57:14;3.00;;;1.40;;
6255;SDS011;3161;48.794;9.784;2022-07-31T07:59:45;2.07;;;1.30;;
6255;SDS011;3161;48.794;9.784;2022-07-31T08:02:13;1.47;;;1.30;;
6255;SDS011;3161;48.794;9.784;2022-07-31T08:04:41;1.60;;;1.20;;
6255;SDS011;3161;48.794;9.784;2022-07-31T08:07:09;1.10;;;1.00;;
6255;SDS011;3161;48.794;9.784;2022-07-31T08:09:37;1.53;;;1.43;;
6255;SDS011;3161;48.794;9.784;2022-07-31T08:12:04;7.00;;;1.10;;
6255;SDS011;3161;48.794;9.784;2022-07-31T08:14:32;1.30;;;1.17;;
6255;SDS011;3161;48.794;9.784;2022-07-31T08:17:00;6.30;;;1.37;;
6255;SDS011;3161;48.794;9.784;2022-07-31T08:19:27;0.90;;;0.90;;
6255;SDS011;3161;48.794;9.784;2022-07-31T08:21:55;20.55;;;14.23;;
6255;SDS011;3161;48.794;9.784;2022-07-31T08:24:22;1.90;;;1.80;;
6255;SDS011;3161;48.794;9.784;2022-07-31T08:26:50;1.35;;;1.25;;
6255;SDS011;3161;48.794;9.784;2022-07-31T08:29:39;4.30;;;1.40;;
6255;SDS011;3161;48.794;9.784;2022-07-31T08:32:06;1.70;;;1.35;;
6255;SDS011;3161;48.794;9.784;2022-07-31T08:34:34;1.82;;;1.17;;
6255;SDS011;3161;48.794;9.784;2022-07-31T08:37:02;5.20;;;1.40;;
6255;SDS011;3161;48.794;9.784;2022-07-31T08:39:36;2.65;;;1.25;;
6255;SDS011;3161;48.794;9.784;2022-07-31T08:42:03;2.22;;;1.45;;
6255;SDS011;3161;48.794;9.784;2022-07-31T08:44:36;1.70;;;1.27;;
6255;SDS011;3161;48.794;9.784;2022-07-31T08:49:53;4.40;;;1.22;;
6255;SDS011;3161;48.794;9.784;2022-07-31T08:52:23;3.15;;;1.50;;
6255;SDS011;3161;48.794;9.784;2022-07-31T08:54:53;2.67;;;1.20;;
6255;SDS011;3161;48.794;9.784;2022-07-31T08:57:21;1.65;;;1.42;;
6255;SDS011;3161;48.794;9.784;2022-07-31T08:59:48;3.22;;;1.47;;
6255;SDS011;3161;48.794;9.784;2022-07-31T09:02:17;3.02;;;1.22;;
6255;SDS011;3161;48.794;9.784;2022-07-31T09:04:45;3.25;;;1.17;;
6255;SDS011;3161;48.794;9.784;2022-07-31T09:07:14;1.70;;;1.40;;
6255;SDS011;3161;48.794;9.784;2022-07-31T09:09:42;3.40;;;1.42;;
6255;SDS011;3161;48.794;9.784;2022-07-31T09:12:12;3.62;;;1.50;;
6255;SDS011;3161;48.794;9.784;2022-07-31T09:14:46;7.03;;;1.55;;
6255;SDS011;3161;48.794;9.784;2022-07-31T09:17:10;3.33;;;1.17;;
6255;SDS011;3161;48.794;9.784;2022-07-31T09:19:40;1.67;;;1.20;;
6255;SDS011;3161;48.794;9.784;2022-07-31T09:22:22;1.42;;;1.32;;
6255;SDS011;3161;48.794;9.784;2022-07-31T09:24:53;2.55;;;1.25;;
6255;SDS011;3161;48.794;9.784;2022-07-31T09:27:33;1.40;;;1.30;;
6255;SDS011;3161;48.794;9.784;2022-07-31T09:30:01;3.37;;;1.30;;
6255;SDS011;3161;48.794;9.784;2022-07-31T09:32:29;3.58;;;1.35;;
6255;SDS011;3161;48.794;9.784;2022-07-31T09:35:07;2.00;;;1.37;;
6255;SDS011;3161;48.794;9.784;2022-07-31T09:37:36;3.17;;;1.35;;
6255;SDS011;3161;48.794;9.784;2022-07-31T09:40:05;1.57;;;1.30;;
6255;SDS011;3161;48.794;9.784;2022-07-31T09:42:34;1.98;;;1.25;;
6255;SDS011;3161;48.794;9.784;2022-07-31T09:45:04;1.42;;;1.10;;
6255;SDS011;3161;48.794;9.784;2022-07-31T09:47:43;5.15;;;1.62;;
6255;SDS011;3161;48.794;9.784;2022-07-31T09:50:11;1.17;;;1.10;;
6255;SDS011;3161;48.794;9.784;2022-07-31T09:52:39;3.10;;;1.00;;
6255;SDS011;3161;48.794;9.784;2022-07-31T09:55:08;3.75;;;1.10;;
6255;SDS011;3161;48.794;9.784;2022-07-31T09:57:38;2.25;;;1.10;;
6255;SDS011;3161;48.794;9.784;2022-07-31T10:00:08;2.15;;;1.27;;
6255;SDS011;3161;48.794;9.784;2022-07-31T10:02:37;1.65;;;1.00;;
6255;SDS011;3161;48.794;9.784;2022-07-31T10:05:06;1.60;;;1.05;;
6255;SDS011;3161;48.794;9.784;2022-07-31T10:07:34;5.10;;;1.27;;
6255;SDS011;3161;48.794;9.784;2022-07-31T10:10:05;1.00;;;0.90;;
6255;SDS011;3161;48.794;9.784;2022-07-31T10:12:34;3.80;;;1.05;;
6255;SDS011;3161;48.794;9.784;2022-07-31T10:15:04;1.32;;;1.20;;
6255;SDS011;3161;48.794;9.784;2022-07-31T10:17:35;1.10;;;1.05;;
6255;SDS011;3161;48.794;9.784;2022-07-31T10:20:08;2.42;;;1.55;;
6255;SDS011;3161;48.794;9.784;2022-07-31T10:22:45;2.02;;;1.30;;
6255;SDS011;3161;48.794;9.784;2022-07-31T10:27:55;1.82;;;1.30;;
6255;SDS011;3161;48.794;9.784;2022-07-31T10:30:28;3.77;;;1.12;;
6255;SDS011;3161;48.794;9.784;2022-07-31T10:32:55;1.87;;;1.00;;
6255;SDS011;3161;48.794;9.784;2022-07-31T10:35:29;4.10;;;1.10;;
6255;SDS011;3161;48.794;9.784;2022-07-31T10:41:06;1.92;;;1.15;;
6255;SDS011;3161;48.794;9.784;2022-07-31T10:43:35;4.33;;;1.30;;
6255;SDS011;3161;48.794;9.784;2022-07-31T10:46:09;1.50;;;0.90;;
6255;SDS011;3161;48.794;9.784;2022-07-31T10:48:37;2.33;;;1.10;;
6255;SDS011;3161;48.794;9.784;2022-07-31T10:51:07;0.70;;;0.70;;
6255;SDS011;3161;48.794;9.784;2022-07-31T10:53:37;2.15;;;0.98;;
6255;SDS011;3161;48.794;9.784;2022-07-31T10:56:06;1.35;;;1.00;;
6255;SDS011;3161;48.794;9.784;2022-07-31T10:58:45;1.20;;;0.88;;
6255;SDS011;3161;48.794;9.784;2022-07-31T11:01:15;4.08;;;1.10;;
6255;SDS011;3161;48.794;9.784;2022-07-31T11:03:45;1.00;;;1.00;;
6255;SDS011;3161;48.794;9.784;2022-07-31T11:06:15;4.03;;;1.25;;
6255;SDS011;3161;48.794;9.784;2022-07-31T11:08:44;1.12;;;1.00;;
6255;SDS011;3161;48.794;9.784;2022-07-31T11:11:14;2.45;;;0.93;;
6255;SDS011;3161;48.794;9.784;2022-07-31T11:16:14;1.25;;;1.10;;
6255;SDS011;3161;48.794;9.784;2022-07-31T11:18:43;2.30;;;1.15;;
6255;SDS011;3161;48.794;9.784;2022-07-31T11:21:13;1.42;;;1.17;;
6255;SDS011;3161;48.794;9.784;2022-07-31T11:23:41;1.57;;;0.78;;
6255;SDS011;3161;48.794;9.784;2022-07-31T11:26:08;3.75;;;1.17;;
6255;SDS011;3161;48.794;9.784;2022-07-31T11:28:36;1.35;;;1.10;;
6255;SDS011;3161;48.794;9.784;2022-07-31T11:31:04;1.05;;;0.95;;
6255;SDS011;3161;48.794;9.784;2022-07-31T11:38:45;1.35;;;0.88;;
6255;SDS011;3161;48.794;9.784;2022-07-31T11:41:17;0.80;;;0.80;;
6255;SDS011;3161;48.794;9.784;2022-07-31T11:43:49;1.30;;;0.80;;
6255;SDS011;3161;48.794;9.784;2022-07-31T11:46:24;0.90;;;0.90;;
6255;SDS011;3161;48.794;9.784;2022-07-31T11:48:53;3.15;;;1.25;;
6255;SDS011;3161;48.794;9.784;2022-07-31T11:51:22;1.10;;;1.00;;
6255;SDS011;3161;48.794;9.784;2022-07-31T11:53:51;0.78;;;0.78;;
6255;SDS011;3161;48.794;9.784;2022-07-31T11:56:23;3.22;;;0.85;;
6255;SDS011;3161;48.794;9.784;2022-07-31T11:58:54;2.30;;;1.05;;
6255;SDS011;3161;48.794;9.784;2022-07-31T12:01:23;0.82;;;0.80;;
6255;SDS011;3161;48.794;9.784;2022-07-31T12:03:52;2.95;;;0.95;;
6255;SDS011;3161;48.794;9.784;2022-07-31T12:06:20;1.52;;;0.82;;
6255;SDS011;3161;48.794;9.784;2022-07-31T12:08:48;2.45;;;0.85;;
6255;SDS011;3161;48.794;9.784;2022-07-31T12:11:17;1.30;;;1.20;;
6255;SDS011;3161;48.794;9.784;2022-07-31T12:13:46;3.30;;;0.95;;
6255;SDS011;3161;48.794;9.784;2022-07-31T12:16:15;2.37;;;1.00;;
6255;SDS011;3161;48.794;9.784;2022-07-31T12:18:47;1.17;;;0.72;;
6255;SDS011;3161;48.794;9.784;2022-07-31T12:21:14;1.20;;;0.90;;
6255;SDS011;3161;48.794;9.784;2022-07-31T12:23:47;1.07;;;0.80;;
6255;SDS011;3161;48.794;9.784;2022-07-31T12:26:31;9.75;;;1.25;;
6255;SDS011;3161;48.794;9.784;2022-07-31T12:29:00;0.80;;;0.80;;
6255;SDS011;3161;48.794;9.784;2022-07-31T12:31:42;1.75;;;0.95;;
6255;SDS011;3161;48.794;9.784;2022-07-31T12:34:12;1.77;;;0.90;;
6255;SDS011;3161;48.794;9.784;2022-07-31T12:37:04;2.90;;;1.10;;
6255;SDS011;3161;48.794;9.784;2022-07-31T12:39:37;3.02;;;1.20;;
6255;SDS011;3161;48.794;9.784;2022-07-31T12:42:07;2.37;;;0.70;;
6255;SDS011;3161;48.794;9.784;2022-07-31T12:44:34;1.00;;;0.90;;
6255;SDS011;3161;48.794;9.784;2022-07-31T12:47:02;1.60;;;1.07;;
6255;SDS011;3161;48.794;9.784;2022-07-31T12:49:29;0.98;;;0.98;;
6255;SDS011;3161;48.794;9.784;2022-07-31T12:51:57;1.00;;;0.90;;
6255;SDS011;3161;48.794;9.784;2022-07-31T12:54:24;1.12;;;0.95;;
6255;SDS011;3161;48.794;9.784;2022-07-31T12:56:52;2.20;;;0.98;;
6255;SDS011;3161;48.794;9.784;2022-07-31T12:59:19;1.45;;;0.93;;
6255;SDS011;3161;48.794;9.784;2022-07-31T13:01:47;2.20;;;0.98;;
6255;SDS011;3161;48.794;9.784;2022-07-31T13:04:14;2.27;;;1.20;;
6255;SDS011;3161;48.794;9.784;2022-07-31T13:06:42;1.15;;;1.10;;
6255;SDS011;3161;48.794;9.784;2022-07-31T13:09:09;5.87;;;1.22;;
6255;SDS011;3161;48.794;9.784;2022-07-31T13:11:37;4.92;;;1.02;;
6255;SDS011;3161;48.794;9.784;2022-07-31T13:14:04;1.55;;;0.95;;
6255;SDS011;3161;48.794;9.784;2022-07-31T13:16:32;3.95;;;1.07;;
6255;SDS011;3161;48.794;9.784;2022-07-31T13:19:00;1.62;;;0.95;;
6255;SDS011;3161;48.794;9.784;2022-07-31T13:21:27;0.80;;;0.80;;
6255;SDS011;3161;48.794;9.784;2022-07-31T13:23:55;3.15;;;1.07;;
6255;SDS011;3161;48.794;9.784;2022-07-31T13:26:23;1.05;;;1.02;;
6255;SDS011;3161;48.794;9.784;2022-07-31T13:28:52;2.83;;;1.72;;
6255;SDS011;3161;48.794;9.784;2022-07-31T13:31:19;4.80;;;1.12;;
6255;SDS011;3161;48.794;9.784;2022-07-31T13:33:47;1.25;;;1.00;;
6255;SDS011;3161;48.794;9.784;2022-07-31T13:36:14;1.27;;;0.93;;
6255;SDS011;3161;48.794;9.784;2022-07-31T13:38:42;4.00;;;0.90;;
6255;SDS011;3161;48.794;9.784;2022-07-31T13:41:09;1.87;;;1.15;;
6255;SDS011;3161;48.794;9.784;2022-07-31T13:43:53;1.85;;;1.50;;
6255;SDS011;3161;48.794;9.784;2022-07-31T13:46:21;1.47;;;1.07;;
6255;SDS011;3161;48.794;9.784;2022-07-31T13:48:50;4.40;;;1.40;;
6255;SDS011;3161;48.794;9.784;2022-07-31T13:51:19;1.30;;;1.20;;
6255;SDS011;3161;48.794;9.784;2022-07-31T13:53:47;1.00;;;1.00;;
6255;SDS011;3161;48.794;9.784;2022-07-31T13:56:18;5.85;;;1.25;;
6255;SDS011;3161;48.794;9.784;2022-07-31T13:58:46;1.20;;;1.20;;
6255;SDS011;3161;48.794;9.784;2022-07-31T14:01:13;5.55;;;1.00;;
6255;SDS011;3161;48.794;9.784;2022-07-31T14:03:41;1.55;;;1.10;;
6255;SDS011;3161;48.794;9.784;2022-07-31T14:06:09;1.10;;;1.00;;
6255;SDS011;3161;48.794;9.784;2022-07-31T14:08:36;3.50;;;1.10;;
6255;SDS011;3161;48.794;9.784;2022-07-31T14:11:04;1.30;;;1.20;;
6255;SDS011;3161;48.794;9.784;2022-07-31T14:13:31;2.67;;;1.17;;
6255;SDS011;3161;48.794;9.784;2022-07-31T14:15:59;3.65;;;1.02;;
6255;SDS011;3161;48.794;9.784;2022-07-31T14:18:29;1.42;;;1.02;;
6255;SDS011;3161;48.794;9.784;2022-07-31T14:20:57;0.90;;;0.90;;
6255;SDS011;3161;48.794;9.784;2022-07-31T14:23:25;1.37;;;0.90;;
6255;SDS011;3161;48.794;9.784;2022-07-31T14:25:52;2.35;;;0.93;;
6255;SDS011;3161;48.794;9.784;2022-07-31T14:28:20;2.15;;;1.20;;
6255;SDS011;3161;48.794;9.784;2022-07-31T14:30:49;5.15;;;1.30;;
6255;SDS011;3161;48.794;9.784;2022-07-31T14:33:17;2.40;;;1.20;;
6255;SDS011;3161;48.794;9.784;2022-07-31T14:35:44;1.30;;;1.20;;
6255;SDS011;3161;48.794;9.784;2022-07-31T14:38:12;2.10;;;1.35;;
6255;SDS011;3161;48.794;9.784;2022-07-31T14:40:39;0.90;;;0.90;;
6255;SDS011;3161;48.794;9.784;2022-07-31T14:43:08;1.40;;;1.30;;
6255;SDS011;3161;48.794;9.784;2022-07-31T14:45:37;1.32;;;1.02;;
6255;SDS011;3161;48.794;9.784;2022-07-31T14:48:05;5.85;;;1.00;;
6255;SDS011;3161;48.794;9.784;2022-07-31T14:50:32;4.55;;;1.10;;
6255;SDS011;3161;48.794;9.784;2022-07-31T14:53:01;1.20;;;1.10;;
6255;SDS011;3161;48.794;9.784;2022-07-31T14:55:29;4.33;;;0.95;;
6255;SDS011;3161;48.794;9.784;2022-07-31T14:57:56;4.33;;;1.15;;
6255;SDS011;3161;48.794;9.784;2022-07-31T15:00:24;2.02;;;1.12;;
6255;SDS011;3161;48.794;9.784;2022-07-31T15:02:52;1.40;;;1.22;;
6255;SDS011;3161;48.794;9.784;2022-07-31T15:05:19;6.80;;;1.47;;
6255;SDS011;3161;48.794;9.784;2022-07-31T15:07:47;1.92;;;1.15;;
6255;SDS011;3161;48.794;9.784;2022-07-31T15:10:14;1.22;;;0.95;;
6255;SDS011;3161;48.794;9.784;2022-07-31T15:12:42;9.83;;;1.52;;
6255;SDS011;3161;48.794;9.784;2022-07-31T15:15:10;2.85;;;1.15;;
6255;SDS011;3161;48.794;9.784;2022-07-31T15:17:37;1.22;;;1.07;;
6255;SDS011;3161;48.794;9.784;2022-07-31T15:20:05;1.72;;;1.10;;
6255;SDS011;3161;48.794;9.784;2022-07-31T15:22:33;2.92;;;1.10;;
6255;SDS011;3161;48.794;9.784;2022-07-31T15:25:01;1.20;;;1.10;;
6255;SDS011;3161;48.794;9.784;2022-07-31T15:27:29;1.25;;;1.05;;
6255;SDS011;3161;48.794;9.784;2022-07-31T15:29:56;3.77;;;1.00;;
6255;SDS011;3161;48.794;9.784;2022-07-31T15:32:24;1.70;;;0.90;;
6255;SDS011;3161;48.794;9.784;2022-07-31T15:34:51;1.40;;;1.00;;
6255;SDS011;3161;48.794;9.784;2022-07-31T15:37:19;1.50;;;0.62;;
6255;SDS011;3161;48.794;9.784;2022-07-31T15:39:46;1.10;;;1.00;;
6255;SDS011;3161;48.794;9.784;2022-07-31T15:42:14;1.15;;;1.00;;
6255;SDS011;3161;48.794;9.784;2022-07-31T15:44:42;9.15;;;8.33;;
6255;SDS011;3161;48.794;9.784;2022-07-31T15:47:09;5.15;;;4.20;;
6255;SDS011;3161;48.794;9.784;2022-07-31T15:49:37;1.25;;;1.10;;